createdAt,value
2017-05-30T00:00:32.581Z,75.20
2017-05-30T00:03:01.505Z,74.60
2017-05-30T00:05:30.452Z,74.40
2017-05-30T00:07:59.407Z,75.40
2017-05-30T00:10:28.356Z,74.60
2017-05-30T00:12:57.289Z,74.70
2017-05-30T00:15:26.242Z,75.10
2017-05-30T00:17:55.175Z,75.10
2017-05-30T00:20:24.102Z,75.50
2017-05-30T00:22:53.065Z,75.50
2017-05-30T00:25:22.009Z,75.80
2017-05-30T00:27:50.961Z,75.60
2017-05-30T00:30:19.962Z,75.10
2017-05-30T00:32:48.905Z,74.90
2017-05-30T00:35:17.826Z,74.80
2017-05-30T00:37:46.800Z,74.80
2017-05-30T00:40:15.744Z,74.50
2017-05-30T00:42:44.685Z,74.80
2017-05-30T00:45:13.657Z,74.90
2017-05-30T00:47:42.605Z,75.20
2017-05-30T00:50:11.542Z,75.00
2017-05-30T00:52:40.523Z,74.90
2017-05-30T00:55:09.471Z,75.30
2017-05-30T00:57:38.401Z,75.10
2017-05-30T01:00:07.366Z,74.80
2017-05-30T01:02:36.312Z,75.40
2017-05-30T01:05:05.234Z,75.40
2017-05-30T01:07:34.199Z,75.60
2017-05-30T01:10:03.150Z,75.40
2017-05-30T01:12:32.099Z,75.20
2017-05-30T01:15:01.076Z,75.60
2017-05-30T01:17:30.010Z,75.50
2017-05-30T01:19:58.958Z,75.10
2017-05-30T01:22:27.914Z,75.50
2017-05-30T01:24:56.857Z,75.80
2017-05-30T01:27:25.785Z,76.30
2017-05-30T01:29:54.759Z,76.50
2017-05-30T01:32:23.687Z,76.70
2017-05-30T01:34:52.610Z,76.90
2017-05-30T01:37:21.581Z,76.70
2017-05-30T01:39:50.511Z,77.30
2017-05-30T01:42:19.454Z,76.00
2017-05-30T01:44:48.402Z,75.90
2017-05-30T01:47:17.354Z,76.00
2017-05-30T01:49:46.306Z,77.20
2017-05-30T01:52:15.272Z,76.30
2017-05-30T01:54:44.204Z,76.60
2017-05-30T01:57:13.153Z,76.40
2017-05-30T01:59:42.133Z,76.40
2017-05-30T02:02:11.065Z,76.30
2017-05-30T02:04:39.986Z,76.10
2017-05-30T02:07:08.950Z,76.30
2017-05-30T02:09:37.895Z,76.60
2017-05-30T02:12:06.821Z,76.60
2017-05-30T02:14:35.794Z,76.90
2017-05-30T02:17:04.736Z,77.30
2017-05-30T02:19:33.661Z,77.10
2017-05-30T02:22:02.619Z,77.50
2017-05-30T02:24:31.569Z,77.60
2017-05-30T02:27:00.514Z,77.30
2017-05-30T02:29:29.469Z,77.70
2017-05-30T02:31:58.419Z,77.80
2017-05-30T02:34:27.368Z,77.70
2017-05-30T02:36:56.326Z,78.30
2017-05-30T02:39:25.267Z,78.50
2017-05-30T02:41:54.208Z,78.60
2017-05-30T02:44:23.185Z,78.30
2017-05-30T02:46:52.137Z,78.40
2017-05-30T02:49:21.065Z,78.30
2017-05-30T02:51:50.019Z,78.40
2017-05-30T02:54:18.948Z,78.20
2017-05-30T02:56:47.869Z,78.70
2017-05-30T02:59:16.837Z,79.00
2017-05-30T03:01:45.774Z,79.00
2017-05-30T03:04:14.729Z,79.00
2017-05-30T03:06:44.072Z,78.90
2017-05-30T03:09:13.015Z,78.50
2017-05-30T03:11:41.961Z,78.30
2017-05-30T03:14:10.919Z,78.60
2017-05-30T03:16:39.861Z,78.70
2017-05-30T03:19:08.791Z,78.40
2017-05-30T03:21:37.765Z,78.50
2017-05-30T03:24:06.713Z,78.50
2017-05-30T03:26:35.647Z,78.50
2017-05-30T03:29:04.621Z,78.30
2017-05-30T03:31:33.565Z,78.30
2017-05-30T03:34:02.503Z,78.20
2017-05-30T03:36:32.526Z,78.40
2017-05-30T03:39:01.477Z,78.30
2017-05-30T03:41:30.399Z,77.70
2017-05-30T03:43:59.698Z,77.60
2017-05-30T03:46:28.623Z,77.90
2017-05-30T03:48:57.570Z,78.50
2017-05-30T03:51:26.557Z,79.00
2017-05-30T03:53:55.484Z,78.70
2017-05-30T03:56:24.428Z,78.30
2017-05-30T03:58:53.402Z,78.40
2017-05-30T04:01:22.353Z,80.40
2017-05-30T04:03:51.299Z,83.50
2017-05-30T04:06:20.272Z,88.30
2017-05-30T04:08:49.230Z,90.30
2017-05-30T04:11:18.158Z,91.50
2017-05-30T04:13:48.330Z,91.60
2017-05-30T04:16:17.275Z,92.00
2017-05-30T04:18:46.227Z,92.40
2017-05-30T04:21:15.192Z,92.30
2017-05-30T04:23:44.138Z,92.20
2017-05-30T04:26:13.086Z,92.70
2017-05-30T04:28:42.067Z,92.40
2017-05-30T04:31:10.998Z,92.20
2017-05-30T04:33:39.949Z,92.10
2017-05-30T04:36:08.912Z,91.90
2017-05-30T04:38:37.838Z,92.50
2017-05-30T04:41:06.796Z,92.70
2017-05-30T04:43:35.754Z,92.20
2017-05-30T04:46:04.705Z,92.70
2017-05-30T04:48:33.637Z,92.30
2017-05-30T04:51:02.598Z,92.20
2017-05-30T04:53:31.530Z,92.40
2017-05-30T04:56:00.457Z,92.40
2017-05-30T04:58:29.414Z,92.50
2017-05-30T05:00:58.342Z,92.70
2017-05-30T05:03:27.273Z,92.90
2017-05-30T05:05:56.238Z,93.30
2017-05-30T05:08:25.188Z,93.10
2017-05-30T05:10:54.144Z,93.10
2017-05-30T05:13:24.078Z,92.80
2017-05-30T05:15:53.003Z,93.00
2017-05-30T05:18:21.931Z,92.80
2017-05-30T05:20:50.890Z,92.40
2017-05-30T05:23:19.813Z,92.20
2017-05-30T05:25:48.769Z,91.70
2017-05-30T05:28:17.741Z,91.90
2017-05-30T05:30:46.688Z,91.90
2017-05-30T05:33:15.637Z,92.00
2017-05-30T05:35:44.618Z,91.90
2017-05-30T05:38:13.551Z,91.40
2017-05-30T05:40:42.504Z,91.40
2017-05-30T05:43:11.485Z,91.20
2017-05-30T05:45:40.419Z,91.20
2017-05-30T05:48:09.355Z,91.20
2017-05-30T05:50:38.342Z,90.80
2017-05-30T05:53:07.272Z,90.80
2017-05-30T05:55:36.204Z,91.00
2017-05-30T05:58:05.200Z,91.10
2017-05-30T06:00:34.132Z,91.30
2017-05-30T06:03:03.082Z,91.00
2017-05-30T06:05:32.057Z,90.60
2017-05-30T06:08:01.010Z,90.60
2017-05-30T06:10:30.109Z,91.00
2017-05-30T06:12:59.084Z,91.10
2017-05-30T06:15:28.015Z,91.50
2017-05-30T06:17:56.951Z,91.30
2017-05-30T06:20:25.910Z,91.10
2017-05-30T06:22:54.853Z,91.10
2017-05-30T06:25:23.800Z,91.60
2017-05-30T06:27:52.759Z,91.90
2017-05-30T06:30:21.707Z,92.70
2017-05-30T06:32:51.070Z,93.90
2017-05-30T06:35:20.026Z,93.70
2017-05-30T06:37:48.978Z,93.50
2017-05-30T06:40:17.928Z,93.10
2017-05-30T06:42:46.899Z,93.00
2017-05-30T06:45:15.893Z,93.00
2017-05-30T06:47:44.822Z,92.90
2017-05-30T06:50:13.792Z,93.40
2017-05-30T06:52:42.724Z,93.10
2017-05-30T06:55:11.682Z,93.10
2017-05-30T06:57:40.661Z,93.10
2017-05-30T07:00:09.660Z,92.80
2017-05-30T07:02:38.793Z,92.70
2017-05-30T07:05:07.850Z,92.60
2017-05-30T07:07:37.011Z,92.80
2017-05-30T07:10:06.030Z,92.50
2017-05-30T07:12:35.037Z,92.20
2017-05-30T07:15:04.029Z,92.30
2017-05-30T07:17:33.015Z,92.70
2017-05-30T07:20:01.984Z,92.20
2017-05-30T07:22:30.946Z,92.10
2017-05-30T07:24:59.883Z,92.20
2017-05-30T07:27:28.843Z,92.30
2017-05-30T07:29:57.791Z,92.20
2017-05-30T07:32:26.743Z,92.10
2017-05-30T07:34:55.717Z,91.70
2017-05-30T07:37:24.665Z,91.70
2017-05-30T07:39:53.601Z,91.30
2017-05-30T07:42:22.562Z,91.60
2017-05-30T07:44:51.497Z,91.90
2017-05-30T07:47:20.450Z,91.50
2017-05-30T07:49:49.439Z,91.20
2017-05-30T07:52:18.380Z,90.10
2017-05-30T07:54:47.330Z,90.10
2017-05-30T07:57:16.313Z,88.20
2017-05-30T07:59:45.271Z,86.30
2017-05-30T08:02:14.193Z,88.10
2017-05-30T08:04:43.154Z,83.70
2017-05-30T08:07:12.112Z,83.50
2017-05-30T08:09:41.060Z,78.60
2017-05-30T08:12:11.001Z,76.60
2017-05-30T08:14:39.955Z,71.90
2017-05-30T08:17:08.885Z,68.60
2017-05-30T08:19:37.887Z,64.60
2017-05-30T08:22:06.819Z,59.80
2017-05-30T08:24:35.745Z,60.30
2017-05-30T08:27:04.705Z,59.20
2017-05-30T08:29:33.654Z,57.50
2017-05-30T08:32:02.603Z,53.40
2017-05-30T08:34:31.597Z,53.90
2017-05-30T08:37:00.595Z,53.30
2017-05-30T08:39:29.523Z,53.70
2017-05-30T08:41:58.513Z,54.50
2017-05-30T08:44:27.437Z,54.50
2017-05-30T08:46:56.373Z,55.60
2017-05-30T08:49:25.713Z,56.30
2017-05-30T08:51:54.676Z,54.60
2017-05-30T08:54:23.608Z,54.70
2017-05-30T08:56:52.587Z,55.90
2017-05-30T08:59:21.522Z,55.60
2017-05-30T09:01:50.453Z,59.10
2017-05-30T09:04:19.409Z,60.60
2017-05-30T09:06:48.347Z,62.50
2017-05-30T09:09:17.282Z,62.80
2017-05-30T09:11:46.251Z,58.40
2017-05-30T09:14:15.202Z,57.50
2017-05-30T09:16:44.122Z,53.50
2017-05-30T09:19:13.108Z,49.80
2017-05-30T09:21:42.261Z,45.60
2017-05-30T09:24:11.200Z,45.10
2017-05-30T09:26:40.159Z,44.20
2017-05-30T09:29:09.083Z,45.60
2017-05-30T09:31:38.026Z,45.60
2017-05-30T09:34:07.005Z,47.70
2017-05-30T09:36:35.938Z,47.30
2017-05-30T09:39:04.893Z,47.00
2017-05-30T09:41:33.877Z,44.10
2017-05-30T09:44:02.844Z,45.20
2017-05-30T09:46:31.769Z,44.60
2017-05-30T09:49:00.749Z,44.10
2017-05-30T09:51:29.705Z,44.70
2017-05-30T09:53:58.645Z,44.60
2017-05-30T09:56:27.628Z,46.70
2017-05-30T09:58:56.559Z,47.90
2017-05-30T10:01:25.493Z,49.30
2017-05-30T10:03:54.460Z,49.90
2017-05-30T10:06:23.393Z,51.80
2017-05-30T10:08:52.342Z,53.90
2017-05-30T10:11:21.298Z,55.20
2017-05-30T10:13:50.239Z,54.30
2017-05-30T10:16:19.173Z,54.10
2017-05-30T10:18:48.152Z,53.50
2017-05-30T10:21:17.105Z,52.00
2017-05-30T10:23:46.051Z,52.30
2017-05-30T10:26:15.063Z,52.70
2017-05-30T10:28:44.012Z,52.20
2017-05-30T10:31:12.956Z,51.10
2017-05-30T10:33:41.929Z,52.90
2017-05-30T10:36:10.873Z,50.90
2017-05-30T10:38:39.804Z,50.50
2017-05-30T10:41:08.776Z,49.30
2017-05-30T10:43:37.710Z,48.60
2017-05-30T10:46:06.639Z,45.90
2017-05-30T10:48:35.616Z,44.80
2017-05-30T10:51:04.547Z,45.10
2017-05-30T10:53:33.497Z,40.80
2017-05-30T10:56:02.468Z,39.80
2017-05-30T10:58:31.416Z,35.70
2017-05-30T11:01:00.349Z,34.20
2017-05-30T11:03:29.308Z,33.60
2017-05-30T11:05:58.252Z,34.60
2017-05-30T11:08:27.183Z,32.50
2017-05-30T11:10:56.153Z,29.80
2017-05-30T11:13:25.081Z,29.90
2017-05-30T11:15:54.020Z,33.40
2017-05-30T11:18:22.978Z,34.20
2017-05-30T11:20:51.916Z,34.60
2017-05-30T11:23:20.846Z,33.40
2017-05-30T11:25:49.801Z,32.50
2017-05-30T11:28:18.726Z,35.00
2017-05-30T11:30:47.650Z,37.50
2017-05-30T11:33:16.613Z,39.30
2017-05-30T11:35:45.561Z,40.20
2017-05-30T11:38:14.512Z,41.10
2017-05-30T11:40:43.471Z,43.10
2017-05-30T11:43:12.403Z,45.20
2017-05-30T11:45:41.353Z,46.10
2017-05-30T11:48:10.302Z,46.30
2017-05-30T11:50:39.248Z,45.30
2017-05-30T11:53:08.177Z,45.80
2017-05-30T11:55:37.157Z,46.00
2017-05-30T11:58:06.078Z,46.80
2017-05-30T12:00:35.002Z,46.10
2017-05-30T12:03:03.980Z,46.70
2017-05-30T12:05:32.924Z,47.70
2017-05-30T12:08:01.877Z,46.50
2017-05-30T12:10:30.842Z,44.30
2017-05-30T12:12:59.792Z,45.30
2017-05-30T12:15:28.740Z,46.80
2017-05-30T12:17:57.705Z,48.60
2017-05-30T12:20:26.641Z,49.00
2017-05-30T12:22:55.593Z,49.00
2017-05-30T12:25:24.576Z,47.30
2017-05-30T12:27:53.537Z,48.80
2017-05-30T12:30:22.475Z,50.00
2017-05-30T12:32:51.489Z,50.20
2017-05-30T12:35:20.431Z,51.80
2017-05-30T12:37:49.421Z,50.80
2017-05-30T12:40:18.415Z,51.20
2017-05-30T12:42:47.351Z,50.30
2017-05-30T12:45:16.308Z,49.80
2017-05-30T12:47:45.261Z,49.20
2017-05-30T12:50:14.191Z,48.10
2017-05-30T12:52:43.125Z,49.20
2017-05-30T12:55:12.104Z,50.60
2017-05-30T12:57:41.033Z,50.70
2017-05-30T13:00:09.987Z,48.80
2017-05-30T13:02:38.980Z,50.50
2017-05-30T13:05:07.919Z,51.90
2017-05-30T13:07:36.876Z,51.60
2017-05-30T13:10:05.840Z,48.90
2017-05-30T13:12:34.820Z,49.00
2017-05-30T13:15:03.769Z,50.70
2017-05-30T13:17:32.738Z,52.50
2017-05-30T13:20:01.677Z,52.30
2017-05-30T13:22:30.623Z,51.60
2017-05-30T13:24:59.613Z,51.10
2017-05-30T13:27:28.577Z,50.20
2017-05-30T13:29:57.514Z,49.40
2017-05-30T13:32:26.496Z,50.20
2017-05-30T13:34:55.466Z,51.50
2017-05-30T13:37:24.402Z,52.70
2017-05-30T13:39:53.376Z,53.10
2017-05-30T13:42:22.311Z,52.30
2017-05-30T13:44:51.274Z,52.20
2017-05-30T13:47:20.265Z,51.10
2017-05-30T13:49:49.210Z,50.80
2017-05-30T13:52:18.142Z,48.00
2017-05-30T13:54:47.222Z,49.00
2017-05-30T13:57:16.265Z,48.10
2017-05-30T13:59:45.210Z,48.20
2017-05-30T14:02:14.192Z,49.50
2017-05-30T14:04:43.149Z,49.10
2017-05-30T14:07:12.086Z,49.30
2017-05-30T14:09:41.069Z,50.10
2017-05-30T14:12:10.005Z,51.50
2017-05-30T14:14:38.943Z,51.80
2017-05-30T14:17:07.901Z,51.70
2017-05-30T14:19:36.835Z,51.30
2017-05-30T14:22:05.798Z,51.20
2017-05-30T14:24:34.784Z,51.90
2017-05-30T14:27:03.740Z,53.70
2017-05-30T14:29:32.678Z,54.30
2017-05-30T14:32:01.724Z,55.20
2017-05-30T14:34:30.684Z,54.50
2017-05-30T14:36:59.609Z,54.30
2017-05-30T14:39:28.571Z,54.90
2017-05-30T14:41:57.527Z,55.20
2017-05-30T14:44:26.478Z,54.80
2017-05-30T14:46:55.443Z,55.20
2017-05-30T14:49:24.396Z,55.60
2017-05-30T14:51:53.356Z,55.50
2017-05-30T14:54:22.330Z,56.40
2017-05-30T14:56:51.290Z,56.10
2017-05-30T14:59:20.242Z,56.30
2017-05-30T15:01:49.210Z,56.60
2017-05-30T15:04:18.164Z,57.40
2017-05-30T15:06:47.092Z,57.40
2017-05-30T15:09:16.073Z,59.30
2017-05-30T15:11:45.021Z,63.80
2017-05-30T15:14:13.978Z,64.50
2017-05-30T15:16:42.940Z,67.20
2017-05-30T15:19:11.879Z,69.30
2017-05-30T15:21:40.811Z,70.10
2017-05-30T15:24:09.766Z,70.90
2017-05-30T15:26:38.693Z,71.10
2017-05-30T15:29:07.618Z,71.00
2017-05-30T15:31:36.597Z,73.10
2017-05-30T15:34:05.517Z,73.80
2017-05-30T15:36:34.474Z,73.70
2017-05-30T15:39:03.470Z,74.10
2017-05-30T15:41:32.417Z,73.80
2017-05-30T15:44:01.344Z,73.10
2017-05-30T15:46:30.415Z,72.70
2017-05-30T15:48:59.346Z,71.90
2017-05-30T15:51:28.275Z,69.40
2017-05-30T15:53:57.240Z,70.10
2017-05-30T15:56:26.178Z,69.30
2017-05-30T15:58:55.110Z,68.30
2017-05-30T16:01:24.079Z,68.40
2017-05-30T16:03:53.033Z,68.10
2017-05-30T16:06:21.981Z,68.40
2017-05-30T16:08:51.011Z,68.90
2017-05-30T16:11:19.966Z,69.10
2017-05-30T16:13:48.892Z,66.60
2017-05-30T16:16:17.896Z,67.40
2017-05-30T16:18:46.821Z,67.70
2017-05-30T16:21:15.758Z,67.50
2017-05-30T16:23:44.731Z,67.50
2017-05-30T16:26:13.701Z,67.70
2017-05-30T16:28:42.661Z,66.60
2017-05-30T16:31:11.817Z,65.80
2017-05-30T16:33:40.767Z,66.80
2017-05-30T16:36:09.696Z,65.50
2017-05-30T16:38:38.662Z,65.90
2017-05-30T16:41:07.616Z,66.30
2017-05-30T16:43:36.545Z,66.80
2017-05-30T16:46:05.506Z,66.20
2017-05-30T16:48:34.464Z,66.20
2017-05-30T16:51:03.418Z,64.30
2017-05-30T16:53:32.399Z,65.10
2017-05-30T16:56:01.325Z,64.30
2017-05-30T16:58:30.250Z,63.80
2017-05-30T17:00:59.231Z,63.90
2017-05-30T17:03:28.157Z,64.10
2017-05-30T17:05:57.116Z,64.30
2017-05-30T17:08:26.093Z,64.90
2017-05-30T17:10:55.048Z,63.60
2017-05-30T17:13:24.001Z,62.70
2017-05-30T17:15:52.954Z,63.20
2017-05-30T17:18:21.882Z,62.50
2017-05-30T17:20:50.810Z,62.80
2017-05-30T17:23:19.781Z,63.20
2017-05-30T17:25:48.709Z,63.20
2017-05-30T17:28:17.638Z,62.50
2017-05-30T17:30:46.632Z,62.60
2017-05-30T17:33:15.573Z,63.30
2017-05-30T17:35:44.529Z,63.70
2017-05-30T17:38:13.478Z,63.90
2017-05-30T17:40:42.478Z,64.10
2017-05-30T17:43:11.424Z,63.90
2017-05-30T17:45:40.397Z,63.90
2017-05-30T17:48:09.320Z,63.90
2017-05-30T17:50:38.252Z,63.80
2017-05-30T17:53:07.230Z,64.30
2017-05-30T17:55:36.158Z,63.70
2017-05-30T17:58:05.095Z,63.70
2017-05-30T18:00:34.076Z,63.40
2017-05-30T18:03:03.028Z,63.30
2017-05-30T18:05:31.983Z,62.70
2017-05-30T18:08:00.991Z,62.30
2017-05-30T18:10:29.959Z,62.60
2017-05-30T18:12:58.895Z,62.60
2017-05-30T18:15:27.855Z,63.90
2017-05-30T18:17:56.805Z,63.20
2017-05-30T18:20:25.743Z,63.50
2017-05-30T18:22:54.705Z,62.70
2017-05-30T18:25:23.631Z,63.10
2017-05-30T18:27:52.563Z,63.60
2017-05-30T18:30:21.519Z,63.50
2017-05-30T18:32:50.469Z,63.90
2017-05-30T18:35:19.394Z,64.10
2017-05-30T18:37:48.370Z,63.90
2017-05-30T18:40:17.323Z,63.80
2017-05-30T18:42:46.250Z,63.20
2017-05-30T18:45:15.214Z,63.70
2017-05-30T18:47:44.139Z,64.20
2017-05-30T18:50:13.092Z,63.90
2017-05-30T18:52:42.051Z,63.80
2017-05-30T18:55:10.994Z,63.80
2017-05-30T18:57:39.944Z,63.90
2017-05-30T19:00:08.930Z,64.20
2017-05-30T19:02:37.893Z,64.60
2017-05-30T19:05:06.829Z,65.50
2017-05-30T19:07:35.805Z,64.90
2017-05-30T19:10:04.731Z,65.30
2017-05-30T19:12:33.682Z,65.60
2017-05-30T19:15:02.645Z,65.40
2017-05-30T19:17:31.570Z,65.90
2017-05-30T19:20:00.512Z,65.60
2017-05-30T19:22:29.462Z,65.90
2017-05-30T19:24:58.395Z,66.20
2017-05-30T19:27:27.336Z,66.20
2017-05-30T19:29:56.314Z,66.00
2017-05-30T19:32:25.238Z,66.30
2017-05-30T19:34:54.167Z,66.70
2017-05-30T19:37:23.142Z,67.50
2017-05-30T19:39:52.096Z,68.00
2017-05-30T19:42:21.041Z,68.40
2017-05-30T19:44:50.014Z,68.50
2017-05-30T19:47:18.960Z,69.00
2017-05-30T19:49:47.898Z,69.30
2017-05-30T19:52:16.877Z,69.50
2017-05-30T19:54:45.821Z,69.30
2017-05-30T19:57:14.748Z,69.60
2017-05-30T19:59:43.725Z,69.70
2017-05-30T20:02:12.659Z,70.30
2017-05-30T20:04:41.583Z,70.40
2017-05-30T20:07:10.546Z,70.30
2017-05-30T20:09:39.497Z,70.60
2017-05-30T20:12:08.421Z,71.20
2017-05-30T20:14:37.380Z,71.40
2017-05-30T20:17:06.333Z,71.70
2017-05-30T20:19:35.284Z,71.50
2017-05-30T20:22:04.246Z,71.90
2017-05-30T20:24:33.196Z,71.60
2017-05-30T20:27:02.123Z,71.20
2017-05-30T20:29:31.100Z,71.00
2017-05-30T20:32:00.057Z,70.90
2017-05-30T20:34:29.005Z,70.50
2017-05-30T20:36:57.957Z,70.90
2017-05-30T20:39:26.886Z,71.80
2017-05-30T20:41:55.822Z,72.20
2017-05-30T20:44:24.796Z,72.20
2017-05-30T20:46:53.731Z,72.60
2017-05-30T20:49:22.674Z,72.80
2017-05-30T20:51:51.647Z,73.10
2017-05-30T20:54:20.596Z,73.40
2017-05-30T20:56:49.532Z,73.90
2017-05-30T20:59:18.491Z,74.30
2017-05-30T21:01:47.442Z,73.90
2017-05-30T21:04:16.374Z,74.00
2017-05-30T21:06:45.357Z,74.00
2017-05-30T21:09:14.289Z,73.60
2017-05-30T21:11:43.237Z,73.90
2017-05-30T21:14:12.281Z,73.40
2017-05-30T21:16:41.213Z,73.70
2017-05-30T21:19:10.161Z,73.40
2017-05-30T21:21:39.142Z,73.70
2017-05-30T21:24:08.081Z,74.00
2017-05-30T21:26:37.009Z,74.20
2017-05-30T21:29:05.983Z,74.60
2017-05-30T21:31:34.909Z,74.50
2017-05-30T21:34:03.858Z,74.90
2017-05-30T21:36:32.841Z,75.20
2017-05-30T21:39:01.768Z,75.00
2017-05-30T21:41:30.724Z,74.80
2017-05-30T21:43:59.696Z,74.50
2017-05-30T21:46:28.645Z,74.40
2017-05-30T21:48:57.603Z,74.20
2017-05-30T21:51:26.590Z,74.60
2017-05-30T21:53:55.541Z,74.80
2017-05-30T21:56:24.491Z,74.50
2017-05-30T21:58:53.453Z,74.70
2017-05-30T22:01:22.381Z,73.90
2017-05-30T22:03:51.308Z,74.00
2017-05-30T22:06:20.289Z,74.10
2017-05-30T22:08:49.218Z,73.40
2017-05-30T22:11:18.145Z,73.80
2017-05-30T22:13:47.106Z,74.50
2017-05-30T22:16:16.056Z,74.40
2017-05-30T22:18:45.003Z,74.20
2017-05-30T22:21:13.953Z,74.10
2017-05-30T22:23:42.899Z,74.40
2017-05-30T22:26:11.841Z,74.30
2017-05-30T22:28:40.815Z,73.90
2017-05-30T22:31:09.744Z,75.20
2017-05-30T22:33:38.674Z,74.30
2017-05-30T22:36:07.715Z,74.60
2017-05-30T22:38:36.634Z,74.40
2017-05-30T22:41:05.567Z,74.60
2017-05-30T22:43:34.520Z,74.10
2017-05-30T22:46:03.447Z,73.90
2017-05-30T22:48:32.375Z,74.10
2017-05-30T22:51:01.348Z,73.90
2017-05-30T22:53:30.273Z,73.00
2017-05-30T22:55:59.194Z,73.20
2017-05-30T22:58:28.173Z,72.80
2017-05-30T23:00:57.108Z,72.40
2017-05-30T23:03:26.060Z,72.30
2017-05-30T23:05:55.041Z,72.20
2017-05-30T23:08:23.994Z,72.90
2017-05-30T23:10:52.953Z,72.80
2017-05-30T23:13:21.908Z,73.10
2017-05-30T23:15:50.835Z,72.80
2017-05-30T23:18:19.777Z,72.80
2017-05-30T23:20:48.744Z,72.80
2017-05-30T23:23:17.690Z,73.20
2017-05-30T23:25:46.626Z,72.70
2017-05-30T23:28:15.583Z,72.60
2017-05-30T23:30:44.514Z,72.20
2017-05-30T23:33:14.415Z,71.90
2017-05-30T23:35:43.385Z,72.10
2017-05-30T23:38:12.335Z,72.40
2017-05-30T23:40:41.283Z,72.80
2017-05-30T23:43:10.316Z,72.60
2017-05-30T23:45:39.301Z,72.50
2017-05-30T23:48:08.286Z,72.70
2017-05-30T23:50:37.328Z,72.70
2017-05-30T23:53:06.316Z,73.00
2017-05-30T23:55:35.305Z,72.90
2017-05-30T23:58:04.341Z,73.00
